Kezdőlap
METAR-TAF:

METAR-TAF

Repülőterek :

Des Moines, Iowa, Amerikai Egyesült Államok

földrajzi szélesség: 41-32-16N, földrajzi hosszúság: 093-39-58W, magasság: 291 m

Jelenlegi meteorológiai megfigyelések

A jelentés 1 órával és 9 perccel ezelõtt készült, 09:54 UTC
Északkeleti szél 4 kt
Hőmérséklet 23°C
Páratartalom 78%
Légköri nyomás 1018 hPa
Látótávolság: 16.1 km
Szakadozott felhőzet 8500 lábon
Szakadozott felhőzet 25000 lábon

METAR: KDSM 030954Z 04004KT 10SM BKN085 BKN250 23/19 A3005 RMK AO2 SLP168 T02280194

Idő: 06:03 (11:03 UTC)

Előrejelzés

A jelentés 5 órával és 43 perccel ezelõtt készült, 05:20 UTC
Az előrejelzés 03-én 06 óra UTC és 04-én 06 óra UTC között érvényes
Keleti szél 4 kt
Látótávolság: 10 km
Kevés felhő 25000 lábon

TAF: KDSM 030520Z 0306/0406 09004KT P6SM FEW250

Meteorológiai megfigyelések és előrejelzések több, mint 4000 repülőtéren (METAR és TAF jelentéseket).

A térképen piros és sárga pontok jelzik az elérhető meteorológiai állomásokat.

Mozgassa az egeret a pont fölött, hogy megjelenjen az állomás neve.

Azután kattintson az időjárási megfigyelések és előrejelzések megtekintéséhez.

A térkép megváltoztatása: kattintson a fekete keresztel jelölt zöld gombra ráközelítéshez, a vonallal jelölt zöld gombra távolításhoz, vagy a zöld nyilakra a szomszédos térképek eléréséhez.


METAR-TAF: